Time;durP1;ratioP1;P1;durP2;ratioP2;P2;SDS_P1;SDS_P2;PMS_P1;PMS_P2;Temp;Humidity;BMP_temperature;BMP_pressure;BME280_temperature;BME280_humidity;BME280_pressure;Samples;Min_cycle;Max_cycle;Signal;HPM_P1;HPM_P2
2022/06/20 00:00:55;;;;;;;41.50;37.95;;;;;;;14.85;100.00;101098.59;5054623;28;20052;-84
2022/06/20 00:03:41;;;;;;;46.55;43.33;;;;;;;14.98;100.00;101094.97;5064099;28;20052;-83
2022/06/20 00:06:19;;;;;;;48.63;45.00;;;;;;;14.66;100.00;101092.44;5061915;28;20127;-83
2022/06/20 00:08:51;;;;;;;39.70;36.58;;;;;;;14.74;100.00;101094.03;5056357;28;20476;-84
2022/06/20 00:11:24;;;;;;;41.15;38.13;;;;;;;14.06;100.00;101091.41;5053740;28;20045;-83
2022/06/20 00:14:00;;;;;;;;;;;;;;;14.46;100.00;101083.00;5050986;28;20048;-85
2022/06/20 00:16:31;;;;;;;39.50;36.45;;;;;;;14.31;100.00;101080.69;5057379;28;20376;-84
2022/06/20 00:19:00;;;;;;;46.25;42.75;;;;;;;14.18;100.00;101090.47;5060529;28;20051;-83
2022/06/20 00:21:30;;;;;;;44.20;40.80;;;;;;;14.21;100.00;101087.34;5063021;28;20053;-82
2022/06/20 00:24:01;;;;;;;56.00;52.42;;;;;;;14.87;100.00;101072.44;5055644;28;20049;-82
2022/06/20 00:26:30;;;;;;;44.80;41.60;;;;;;;14.59;100.00;101062.31;5060066;28;20055;-82
2022/06/20 00:29:23;;;;;;;51.53;47.67;;;;;;;14.63;100.00;101063.50;5064265;28;20053;-83
2022/06/20 00:31:53;;;;;;;;;;;;;;;14.87;100.00;101069.78;5054715;28;20049;-83
2022/06/20 00:34:24;;;;;;;47.20;43.50;;;;;;;14.94;100.00;101067.00;5069646;28;19988;-83
2022/06/20 00:36:57;;;;;;;42.57;39.37;;;;;;;14.71;100.00;101061.56;5042041;28;20041;-83
2022/06/20 00:39:25;;;;;;;;;;;;;;;14.59;100.00;101059.66;5073244;28;20041;-84
2022/06/20 00:41:56;;;;;;;38.88;35.88;;;;;;;13.98;100.00;101061.28;5057978;28;19925;-82
2022/06/20 00:44:42;;;;;;;47.00;43.50;;;;;;;14.13;100.00;101070.78;5064229;28;20433;-82
2022/06/20 00:47:22;;;;;;;42.05;38.90;;;;;;;14.31;100.00;101061.97;5049801;28;20477;-86
2022/06/20 00:50:00;;;;;;;40.47;37.40;;;;;;;14.45;100.00;101058.13;5063021;28;20051;-83
2022/06/20 00:52:44;;;;;;;49.97;46.38;;;;;;;14.33;100.00;101059.91;5052499;28;20072;-82
2022/06/20 00:55:21;;;;;;;44.92;41.47;;;;;;;13.93;100.00;101053.13;5056729;28;20052;-82
2022/06/20 00:57:54;;;;;;;45.47;42.08;;;;;;;14.11;100.00;101054.19;5062094;28;20397;-82
2022/06/20 01:00:25;;;;;;;45.75;42.00;;;;;;;14.34;100.00;101049.00;5057764;28;20060;-84
2022/06/20 01:03:20;;;;;;;42.90;39.85;;;;;;;14.29;100.00;101048.03;5063882;28;20098;-84
2022/06/20 01:05:53;;;;;;;43.58;40.38;;;;;;;14.25;100.00;101046.84;5056556;28;20076;-82
2022/06/20 01:08:35;;;;;;;44.15;40.75;;;;;;;14.20;100.00;101040.31;5061566;28;20390;-83
2022/06/20 01:11:06;;;;;;;44.53;41.23;;;;;;;13.97;100.00;101046.28;5052760;28;20045;-84
2022/06/20 01:13:36;;;;;;;52.85;49.15;;;;;;;13.72;100.00;101043.66;5061295;28;20040;-83
2022/06/20 01:16:24;;;;;;;50.97;47.28;;;;;;;14.00;100.00;101053.03;5065878;28;20474;-83
2022/06/20 01:18:58;;;;;;;41.40;38.10;;;;;;;14.15;100.00;101053.50;5060132;28;20057;-84
2022/06/20 01:21:36;;;;;;;39.60;36.50;;;;;;;14.14;100.00;101041.19;5055419;28;20048;-82
2022/06/20 01:24:27;;;;;;;46.67;43.22;;;;;;;14.27;100.00;101052.78;5063268;28;20048;-84
2022/06/20 01:27:17;;;;;;;41.67;38.72;;;;;;;13.85;100.00;101047.22;5043926;28;20052;-81
2022/06/20 01:29:50;;;;;;;41.63;38.35;;;;;;;14.08;100.00;101046.63;5065104;28;20064;-83
2022/06/20 01:32:25;;;;;;;46.17;42.45;;;;;;;13.96;100.00;101049.19;5057513;28;20053;-84
2022/06/20 01:34:55;;;;;;;44.53;40.83;;;;;;;13.99;100.00;101048.75;5062033;28;20397;-85
2022/06/20 01:37:29;;;;;;;50.78;46.88;;;;;;;14.13;100.00;101049.41;5057005;28;20052;-84
2022/06/20 01:40:05;;;;;;;46.53;43.03;;;;;;;14.30;100.00;101047.81;5051083;28;20044;-84
2022/06/20 01:42:42;;;;;;;47.42;43.67;;;;;;;14.30;100.00;101047.81;5063902;28;20060;-83
2022/06/20 01:48:06;;;;;;;45.45;41.83;;;;;;;14.42;100.00;101042.53;5051649;28;20072;-83
2022/06/20 01:50:38;;;;;;;43.95;40.65;;;;;;;14.51;100.00;101041.22;5061655;28;20041;-84
2022/06/20 01:53:13;;;;;;;43.03;39.58;;;;;;;14.60;100.00;101045.22;5061618;28;20055;-82
2022/06/20 01:55:48;;;;;;;42.17;38.97;;;;;;;14.48;100.00;101043.50;5057392;28;20052;-82
2022/06/20 01:58:34;;;;;;;47.88;43.70;;;;;;;14.43;100.00;101044.16;5061744;28;20041;-82
2022/06/20 02:01:03;;;;;;;58.20;53.60;;;;;;;14.54;100.00;101046.13;5183264;22;20087;-82
2022/06/20 02:03:34;;;;;;;44.42;40.47;;;;;;;14.66;100.00;101046.19;5053644;28;20412;-82
2022/06/20 02:06:02;;;;;;;43.65;40.15;;;;;;;14.63;100.00;101050.13;5050656;28;20045;-84
2022/06/20 02:08:30;;;;;;;39.85;36.75;;;;;;;14.50;100.00;101055.63;5047335;28;20055;-82
2022/06/20 02:11:03;;;;;;;42.83;38.92;;;;;;;14.52;100.00;101052.72;5057493;28;20053;-84
2022/06/20 02:13:51;;;;;;;64.28;59.60;;;;;;;14.37;100.00;101050.41;5056512;28;20040;-84
2022/06/20 02:16:22;;;;;;;43.22;39.83;;;;;;;14.40;100.00;101045.44;5054677;28;20053;-82
2022/06/20 02:18:53;;;;;;;57.67;52.75;;;;;;;14.45;100.00;101042.09;5055956;28;20045;-82
2022/06/20 02:21:32;;;;;;;56.17;51.97;;;;;;;14.61;100.00;101046.88;5045088;28;20049;-84
2022/06/20 02:24:05;;;;;;;62.00;57.20;;;;;;;14.64;100.00;101035.75;5044393;28;20122;-82
2022/06/20 02:26:34;;;;;;;;;;;;;;;14.62;100.00;101040.50;5055499;28;20056;-82
2022/06/20 02:29:09;;;;;;;44.88;41.58;;;;;;;14.56;100.00;101038.72;5055151;28;19921;-82
2022/06/20 02:31:36;;;;;;;41.97;38.72;;;;;;;14.46;100.00;101034.88;5052286;28;20397;-82
2022/06/20 02:34:04;;;;;;;39.28;36.42;;;;;;;13.86;100.00;101040.88;5055371;28;20053;-83
2022/06/20 02:36:33;;;;;;;45.25;41.92;;;;;;;14.42;100.00;101037.19;5054105;28;20060;-84
2022/06/20 02:39:03;;;;;;;45.58;42.30;;;;;;;14.59;100.00;101043.59;5053049;28;20053;-84
2022/06/20 02:41:38;;;;;;;41.85;38.95;;;;;;;14.31;100.00;101040.59;5056139;28;20190;-84
2022/06/20 02:44:17;;;;;;;38.35;35.85;;;;;;;13.65;100.00;101047.44;5040169;28;20045;-83
2022/06/20 02:46:55;;;;;;;40.10;37.35;;;;;;;13.80;100.00;101041.72;5036984;28;20136;-84
2022/06/20 02:49:28;;;;;;;43.53;40.03;;;;;;;13.85;100.00;101052.56;5055589;28;20045;-82
2022/06/20 02:51:57;;;;;;;44.38;41.05;;;;;;;13.72;100.00;101043.66;5039647;28;20064;-84
2022/06/20 02:54:31;;;;;;;46.95;43.70;;;;;;;14.34;100.00;101035.66;5055228;28;20052;-82
2022/06/20 02:57:14;;;;;;;42.20;39.20;;;;;;;14.28;100.00;101038.38;5056430;28;20049;-86
2022/06/20 02:59:52;;;;;;;38.72;35.85;;;;;;;14.37;100.00;101042.38;5054876;28;20041;-85
2022/06/20 03:02:29;;;;;;;37.72;34.83;;;;;;;14.51;100.00;101046.56;5053059;28;20055;-84
2022/06/20 03:04:58;;;;;;;40.05;37.03;;;;;;;14.57;100.00;101044.88;5055155;28;20106;-85
2022/06/20 03:07:29;;;;;;;39.58;36.47;;;;;;;14.36;100.00;101038.91;5055974;28;20060;-83
2022/06/20 03:10:03;;;;;;;38.78;35.95;;;;;;;14.55;100.00;101039.72;5055000;28;20056;-83
2022/06/20 03:12:32;;;;;;;40.35;37.28;;;;;;;14.80;100.00;101031.63;5048921;28;20477;-83
2022/06/20 03:15:08;;;;;;;38.53;35.47;;;;;;;14.68;100.00;101033.44;5054715;28;20052;-85
2022/06/20 03:17:47;;;;;;;36.20;33.42;;;;;;;14.86;100.00;101036.06;5054087;28;20049;-82
2022/06/20 03:20:22;;;;;;;38.05;35.25;;;;;;;14.94;100.00;101032.25;5054533;28;20444;-82
2022/06/20 03:22:58;;;;;;;36.90;34.05;;;;;;;14.83;100.00;101027.69;5053842;28;20053;-85
2022/06/20 03:25:43;;;;;;;35.55;32.65;;;;;;;14.85;100.00;101030.94;5054785;28;20057;-85
2022/06/20 03:28:14;;;;;;;39.67;36.67;;;;;;;14.92;100.00;101025.47;5049453;28;20045;-83
2022/06/20 03:30:43;;;;;;;35.47;33.00;;;;;;;14.92;100.00;101020.13;5051436;28;20055;-83
2022/06/20 03:33:14;;;;;;;43.97;40.85;;;;;;;15.03;100.00;101028.19;5043045;28;20402;-85
2022/06/20 03:35:57;;;;;;;38.65;35.65;;;;;;;15.06;100.00;101019.72;5045857;28;20520;-83
2022/06/20 03:38:54;;;;;;;40.03;36.78;;;;;;;15.30;100.00;101017.13;5043272;28;20045;-83
2022/06/20 03:41:25;;;;;;;41.88;38.88;;;;;;;15.27;100.00;101020.25;5040469;28;20052;-84
2022/06/20 03:44:01;;;;;;;41.20;37.58;;;;;;;15.47;100.00;101020.75;5052310;28;20079;-84
2022/06/20 03:46:38;;;;;;;46.22;42.53;;;;;;;15.33;100.00;101019.31;5052170;28;20126;-84
2022/06/20 03:49:13;;;;;;;44.50;40.08;;;;;;;15.38;100.00;101024.00;5053907;28;20131;-83
2022/06/20 03:51:45;;;;;;;50.03;44.83;;;;;;;15.50;100.00;101016.81;5054151;28;20136;-85
2022/06/20 03:54:20;;;;;;;49.20;44.00;;;;;;;15.44;100.00;101020.41;5054232;28;20041;-83
2022/06/20 03:56:53;;;;;;;55.53;42.85;;;;;;;15.34;100.00;101013.75;5054077;28;20052;-84
2022/06/20 03:59:25;;;;;;;49.08;43.17;;;;;;;15.40;100.00;101014.72;5055975;28;20076;-83
2022/06/20 04:02:00;;;;;;;57.75;46.80;;;;;;;15.49;100.00;101017.84;5051758;28;20144;-84
2022/06/20 04:04:33;;;;;;;56.70;50.92;;;;;;;15.72;100.00;101015.22;5049133;28;20049;-85
2022/06/20 04:07:04;;;;;;;49.53;45.15;;;;;;;15.95;100.00;101013.59;5056862;28;20111;-84
2022/06/20 04:12:47;;;;;;;62.60;56.00;;;;;;;16.00;100.00;101021.72;4967395;28;20045;-85
2022/06/20 04:15:24;;;;;;;47.38;44.38;;;;;;;16.00;100.00;101014.50;4974331;28;20055;-85
2022/06/20 04:20:52;;;;;;;45.83;42.92;;;;;;;16.11;100.00;101014.72;5053035;28;20567;-82
2022/06/20 04:23:21;;;;;;;;;;;;;;;16.17;100.00;101000.41;5041969;28;20060;-82
2022/06/20 04:25:55;;;;;;;45.33;42.15;;;;;;;16.47;100.00;101011.75;5037956;28;19987;-82
2022/06/20 04:28:28;;;;;;;44.10;40.60;;;;;;;16.69;100.00;101009.22;5044299;28;20132;-85
2022/06/20 04:31:11;;;;;;;40.63;37.83;;;;;;;16.71;100.00;101003.63;5053897;28;20059;-85
2022/06/20 04:33:46;;;;;;;39.35;36.53;;;;;;;16.72;100.00;101007.91;5042869;28;20041;-82
2022/06/20 04:36:28;;;;;;;36.90;33.92;;;;;;;16.82;100.00;101007.31;5052827;28;20057;-83
2022/06/20 04:39:03;;;;;;;37.42;34.88;;;;;;;16.63;100.00;101004.81;5054966;28;20107;-85
2022/06/20 04:41:39;;;;;;;39.42;36.83;;;;;;;16.89;100.00;101010.69;5053510;28;20045;-83
2022/06/20 04:44:18;;;;;;;39.80;37.20;;;;;;;16.94;100.00;101010.75;5047990;28;20123;-83
2022/06/20 04:46:54;;;;;;;42.70;39.88;;;;;;;17.10;100.00;101014.56;5054925;28;20135;-85
2022/06/20 04:49:22;;;;;;;42.40;39.80;;;;;;;17.10;100.00;101018.03;5045070;28;20049;-83
2022/06/20 04:51:52;;;;;;;40.47;38.00;;;;;;;17.39;100.00;101020.66;5050914;28;20254;-83
2022/06/20 04:54:22;;;;;;;37.40;35.05;;;;;;;17.52;100.00;101014.97;5051961;28;20045;-84
2022/06/20 04:56:54;;;;;;;34.55;32.17;;;;;;;17.46;100.00;101020.50;5054910;28;20060;-84
2022/06/20 04:59:26;;;;;;;37.63;34.88;;;;;;;17.79;100.00;101019.69;5055437;28;20587;-82
2022/06/20 05:01:54;;;;;;;37.30;34.73;;;;;;;18.05;100.00;101010.13;5050088;28;20053;-83
2022/06/20 05:04:29;;;;;;;36.45;33.88;;;;;;;18.08;100.00;101023.06;5053227;28;20055;-82
2022/06/20 05:06:58;;;;;;;36.05;33.55;;;;;;;18.06;100.00;101017.94;5054434;28;20057;-82
2022/06/20 05:09:32;;;;;;;35.28;33.08;;;;;;;18.05;100.00;101019.00;5053547;28;20417;-81
2022/06/20 05:12:06;;;;;;;36.00;33.40;;;;;;;18.40;100.00;101020.53;5051306;28;20482;-82
2022/06/20 05:14:42;;;;;;;35.63;33.25;;;;;;;18.41;100.00;101022.16;5053146;28;20087;-82
2022/06/20 05:17:23;;;;;;;36.03;32.70;;;;;;;18.49;100.00;101024.41;5046910;28;20394;-85
2022/06/20 05:19:55;;;;;;;35.20;33.00;;;;;;;18.35;100.00;101019.66;5049520;28;20089;-84
2022/06/20 05:22:27;;;;;;;40.10;37.50;;;;;;;18.66;100.00;101026.19;5054107;28;20036;-85
2022/06/20 05:24:56;;;;;;;37.38;34.95;;;;;;;18.92;100.00;101020.06;5053974;28;20041;-82
2022/06/20 05:27:29;;;;;;;42.58;40.05;;;;;;;19.11;100.00;101022.38;5052330;28;20473;-85
2022/06/20 05:30:00;;;;;;;53.90;50.90;;;;;;;19.19;100.00;101017.34;5052832;28;20397;-85
2022/06/20 05:32:37;;;;;;;55.45;52.45;;;;;;;19.47;100.00;101014.59;5052407;28;20041;-85
2022/06/20 05:35:12;;;;;;;53.03;49.85;;;;;;;19.50;100.00;101006.00;5055156;28;20045;-82
2022/06/20 05:37:46;;;;;;;50.90;48.00;;;;;;;19.62;100.00;101009.31;5048611;28;20044;-82
2022/06/20 05:40:20;;;;;;;48.90;46.00;;;;;;;19.66;100.00;101008.56;5053510;28;20456;-85
2022/06/20 05:42:47;;;;;;;53.47;50.03;;;;;;;20.01;100.00;101009.88;5050529;28;20547;-82
2022/06/20 05:45:17;;;;;;;43.22;40.72;;;;;;;19.83;100.00;100997.63;5050248;28;20111;-84
2022/06/20 05:47:53;;;;;;;43.63;41.13;;;;;;;19.94;100.00;100993.13;5050610;28;20060;-83
2022/06/20 05:50:32;;;;;;;44.53;41.83;;;;;;;19.94;100.00;100992.28;5051232;28;20060;-82
2022/06/20 05:53:01;;;;;;;41.03;38.30;;;;;;;20.54;100.00;100985.56;5051994;28;20048;-83
2022/06/20 05:55:45;;;;;;;38.22;35.92;;;;;;;20.71;100.00;100985.34;5051905;28;20060;-83
2022/06/20 05:58:18;;;;;;;44.88;42.17;;;;;;;21.02;100.00;100984.28;5055048;28;20063;-86
2022/06/20 06:00:47;;;;;;;40.42;37.92;;;;;;;21.34;100.00;100980.53;5053286;28;20428;-84
2022/06/20 06:03:18;;;;;;;43.97;41.30;;;;;;;21.91;100.00;100975.84;5056043;28;20059;-84
2022/06/20 06:05:50;;;;;;;45.13;42.17;;;;;;;21.67;100.00;100976.44;5056530;28;20049;-82
2022/06/20 06:08:25;;;;;;;42.03;39.42;;;;;;;21.66;100.00;100963.19;5046535;28;20048;-87
2022/06/20 06:10:57;;;;;;;44.30;41.70;;;;;;;21.94;100.00;100968.00;5042360;28;20053;-83
2022/06/20 06:13:33;;;;;;;47.38;44.72;;;;;;;21.93;100.00;100958.25;5054390;28;20041;-85
2022/06/20 06:18:58;;;;;;;45.13;42.38;;;;;;;22.33;100.00;100956.50;5054333;28;20048;-85
2022/06/20 06:21:28;;;;;;;41.65;39.38;;;;;;;22.48;100.00;100946.66;5055210;28;20045;-85
2022/06/20 06:23:57;;;;;;;39.65;37.10;;;;;;;22.61;100.00;100949.56;5055920;28;20045;-85
2022/06/20 06:26:23;;;;;;;38.05;35.65;;;;;;;22.72;100.00;100950.28;5054073;28;20060;-82
2022/06/20 06:28:53;;;;;;;45.30;42.80;;;;;;;22.88;100.00;100939.38;5049812;28;20488;-83
2022/06/20 06:31:24;;;;;;;40.10;37.80;;;;;;;23.22;100.00;100934.75;5053665;28;20456;-82
2022/06/20 06:33:57;;;;;;;44.80;42.28;;;;;;;23.30;100.00;100925.22;5054440;28;20045;-86
2022/06/20 06:36:31;;;;;;;42.10;39.90;;;;;;;23.44;100.00;100925.34;5050637;28;20055;-84
2022/06/20 06:39:05;;;;;;;40.25;38.22;;;;;;;23.61;100.00;100925.69;5054594;28;20049;-84
2022/06/20 06:41:36;;;;;;;41.40;39.20;;;;;;;23.84;100.00;100915.16;5039562;28;20417;-84
2022/06/20 06:44:12;;;;;;;43.05;40.78;;;;;;;24.13;100.00;100912.34;5054331;28;20060;-82
2022/06/20 06:46:43;;;;;;;44.55;41.97;;;;;;;24.33;100.00;100903.13;5047455;28;20048;-81
2022/06/20 06:49:23;;;;;;;48.10;45.40;;;;;;;24.40;100.00;100906.28;5054135;28;20059;-84
2022/06/20 06:51:59;;;;;;;45.25;42.63;;;;;;;24.54;100.00;100912.59;5050163;28;20090;-82
2022/06/20 06:54:46;;;;;;;47.95;45.35;;;;;;;24.53;91.56;100896.59;5054089;28;20456;-85
2022/06/20 06:57:21;;;;;;;46.47;43.95;;;;;;;24.23;91.48;100906.78;5053415;28;20049;-81
2022/06/20 06:59:58;;;;;;;49.13;46.53;;;;;;;24.50;100.00;100897.19;5053402;28;20049;-84
2022/06/20 07:02:30;;;;;;;52.85;50.15;;;;;;;24.83;87.13;100892.59;5050647;28;20363;-81
2022/06/20 07:05:03;;;;;;;39.95;37.95;;;;;;;25.10;84.99;100900.81;5051480;28;20053;-84
2022/06/20 07:07:41;;;;;;;43.13;40.92;;;;;;;25.25;70.67;100894.31;5049721;28;20038;-85
2022/06/20 07:10:18;;;;;;;44.75;42.42;;;;;;;25.22;64.37;100892.19;5044266;28;20050;-82
2022/06/20 07:12:51;;;;;;;45.05;42.75;;;;;;;25.27;69.49;100894.03;5048469;28;20056;-82
2022/06/20 07:15:22;;;;;;;43.33;40.50;;;;;;;25.51;89.90;100882.97;5053651;28;20132;-82
2022/06/20 07:17:56;;;;;;;45.85;43.65;;;;;;;25.47;98.62;100885.47;5049834;28;20510;-84
2022/06/20 07:20:28;;;;;;;43.60;41.50;;;;;;;25.47;79.25;100892.81;5050588;28;20053;-84
2022/06/20 07:23:03;;;;;;;42.15;39.85;;;;;;;25.40;77.64;100876.91;5048185;28;20132;-85
2022/06/20 07:25:35;;;;;;;43.95;41.75;;;;;;;25.70;88.37;100875.50;5045748;28;20049;-82
2022/06/20 07:28:10;;;;;;;45.55;43.15;;;;;;;25.78;96.81;100879.41;5054799;28;20520;-86
2022/06/20 07:30:44;;;;;;;46.72;44.38;;;;;;;26.09;73.99;100873.38;5049298;28;20401;-82
2022/06/20 07:33:18;;;;;;;48.72;46.33;;;;;;;25.54;70.02;100875.00;5051882;28;20060;-81
2022/06/20 07:35:57;;;;;;;46.67;44.42;;;;;;;25.65;67.32;100877.50;5049186;28;20068;-85
2022/06/20 07:38:32;;;;;;;48.45;46.15;;;;;;;26.00;70.50;100879.53;5048877;28;20477;-82
2022/06/20 07:41:03;;;;;;;52.15;49.65;;;;;;;26.07;66.73;100878.28;5052980;28;20060;-84
2022/06/20 07:43:38;;;;;;;51.80;49.17;;;;;;;26.38;76.63;100873.75;5038711;28;20068;-85
2022/06/20 07:46:17;;;;;;;48.65;46.15;;;;;;;26.15;63.60;100872.13;5050875;28;20068;-84
2022/06/20 07:48:47;;;;;;;43.47;41.28;;;;;;;25.86;88.04;100872.50;5053365;28;20110;-81
2022/06/20 07:51:20;;;;;;;50.30;46.55;;;;;;;26.02;79.38;100873.75;5053330;28;20488;-83
2022/06/20 07:53:54;;;;;;;50.97;47.83;;;;;;;26.51;78.73;100872.13;5053439;28;20045;-82
2022/06/20 07:56:29;;;;;;;49.03;46.63;;;;;;;26.28;72.99;100869.34;5053768;28;20049;-85
2022/06/20 07:59:11;;;;;;;34.05;31.95;;;;;;;26.66;84.62;100863.59;5050862;28;20049;-85
2022/06/20 08:01:43;;;;;;;31.63;29.83;;;;;;;26.85;94.97;100852.47;5043367;28;20107;-84
2022/06/20 08:04:19;;;;;;;32.30;30.17;;;;;;;26.90;75.76;100856.97;5051843;28;20057;-84
2022/06/20 08:06:54;;;;;;;30.63;28.92;;;;;;;27.01;74.30;100850.16;5052721;28;20401;-84
2022/06/20 08:09:27;;;;;;;32.90;31.02;;;;;;;27.17;83.23;100859.56;5054478;28;20123;-84
2022/06/20 08:11:59;;;;;;;33.03;31.33;;;;;;;27.25;82.54;100846.28;5053668;28;20064;-81
2022/06/20 08:14:30;;;;;;;;;;;;;;;27.07;75.50;100850.81;5053682;28;20037;-81
2022/06/20 08:17:01;;;;;;;31.90;30.10;;;;;;;27.71;66.59;100851.22;5053526;28;19928;-83
2022/06/20 08:19:30;;;;;;;34.60;32.50;;;;;;;27.78;62.08;100851.59;5052627;28;20071;-81
2022/06/20 08:22:02;;;;;;;29.60;27.90;;;;;;;27.46;55.95;100851.97;5053798;28;20056;-83
2022/06/20 08:24:33;;;;;;;;;;;;;;;27.27;59.36;100844.06;5054222;28;20059;-81
2022/06/20 08:27:07;;;;;;;29.35;27.65;;;;;;;27.35;79.84;100846.81;5052356;28;20035;-83
2022/06/20 08:29:39;;;;;;;29.00;27.25;;;;;;;27.52;62.28;100854.22;5053357;28;20045;-84
2022/06/20 08:32:16;;;;;;;;;;;;;;;27.78;62.13;100850.81;5051867;28;20052;-82
2022/06/20 08:34:49;;;;;;;29.70;28.10;;;;;;;27.62;56.89;100840.28;5053309;28;19920;-80
2022/06/20 08:37:24;;;;;;;30.80;29.00;;;;;;;27.64;63.16;100848.16;5053208;28;20064;-85
2022/06/20 08:39:59;;;;;;;32.53;30.73;;;;;;;27.70;60.72;100844.16;5051681;28;20057;-81
2022/06/20 08:42:54;;;;;;;33.78;31.77;;;;;;;27.79;61.50;100846.94;5050010;28;20079;-85
2022/06/20 08:45:38;;;;;;;30.42;28.63;;;;;;;28.34;60.01;100834.59;5054712;28;20489;-85
2022/06/20 08:48:58;;;;;;;31.35;29.35;;;;;;;28.43;56.52;100836.22;5053546;28;20059;-84
2022/06/20 08:52:06;;;;;;;33.00;30.88;;;;;;;27.82;62.44;100838.13;5056244;28;20393;-82
2022/06/20 08:55:13;;;;;;;33.40;31.20;;;;;;;28.10;59.66;100838.59;5055813;28;20053;-83
2022/06/20 08:57:52;;;;;;;32.03;30.02;;;;;;;27.08;78.55;100833.34;5050027;28;20126;-82
2022/06/20 09:00:26;;;;;;;33.35;31.15;;;;;;;27.49;68.10;100838.50;5055019;28;20405;-84
2022/06/20 09:03:23;;;;;;;32.45;29.75;;;;;;;27.91;56.57;100833.47;5056581;28;20468;-84
2022/06/20 09:06:08;;;;;;;32.60;30.50;;;;;;;27.80;52.68;100824.78;5053135;28;20457;-84
2022/06/20 09:08:49;;;;;;;33.95;31.95;;;;;;;28.04;52.79;100831.69;5056639;28;20462;-87
2022/06/20 09:11:33;;;;;;;35.10;32.90;;;;;;;27.70;64.69;100829.72;5056877;28;20114;-84
2022/06/20 09:14:15;;;;;;;35.15;33.15;;;;;;;27.60;57.99;100830.84;5055639;28;20544;-84
2022/06/20 09:16:52;;;;;;;34.23;32.00;;;;;;;28.34;61.43;100832.66;5055548;28;20056;-84
2022/06/20 09:19:42;;;;;;;30.23;28.08;;;;;;;27.90;76.34;100820.13;5055530;28;20714;-82
2022/06/20 09:22:20;;;;;;;28.58;26.88;;;;;;;28.42;63.58;100820.97;5054322;28;20044;-81
2022/06/20 09:25:02;;;;;;;31.02;29.02;;;;;;;27.84;66.07;100820.31;5054686;28;20045;-82
2022/06/20 09:27:43;;;;;;;30.70;28.70;;;;;;;26.97;90.28;100826.56;5053632;28;20057;-84
2022/06/20 09:30:14;;;;;;;29.35;27.45;;;;;;;26.62;93.29;100818.19;5054429;28;20052;-82
2022/06/20 09:33:06;;;;;;;31.42;29.30;;;;;;;27.51;58.74;100816.38;5054875;28;20099;-81
2022/06/20 09:36:01;;;;;;;30.55;28.17;;;;;;;27.64;59.57;100810.75;5049209;28;20056;-83
2022/06/20 09:38:39;;;;;;;30.02;28.15;;;;;;;27.85;55.08;100804.72;5052073;28;20440;-84
2022/06/20 09:41:16;;;;;;;34.20;31.92;;;;;;;27.95;68.90;100804.41;5053422;28;20053;-83
2022/06/20 09:43:52;;;;;;;30.33;28.42;;;;;;;27.64;68.25;100804.50;5054958;28;20461;-86
2022/06/20 09:46:28;;;;;;;29.65;27.58;;;;;;;27.52;82.99;100807.06;5055647;28;20052;-85
2022/06/20 09:49:06;;;;;;;31.02;29.00;;;;;;;28.40;53.66;100800.53;5054688;28;20045;-82
2022/06/20 09:51:47;;;;;;;30.67;28.60;;;;;;;29.28;48.26;100799.13;5053825;28;20118;-82
2022/06/20 09:54:20;;;;;;;34.72;32.53;;;;;;;28.30;59.31;100796.19;5050406;28;20049;-81
2022/06/20 09:56:52;;;;;;;36.53;34.00;;;;;;;28.36;67.15;100794.91;5051216;28;20052;-84
2022/06/20 09:59:36;;;;;;;33.45;31.52;;;;;;;28.79;61.12;100790.50;5055347;28;20494;-86
2022/06/20 10:02:10;;;;;;;31.00;29.20;;;;;;;28.80;53.76;100786.63;5051836;28;20115;-85
2022/06/20 10:04:45;;;;;;;31.52;29.50;;;;;;;27.53;78.49;100795.03;5051491;28;20109;-82
2022/06/20 10:07:20;;;;;;;29.67;27.77;;;;;;;28.70;46.42;100794.03;5053667;28;20060;-82
2022/06/20 10:10:07;;;;;;;29.27;27.38;;;;;;;28.96;46.63;100790.44;5055380;28;20053;-85
2022/06/20 10:12:41;;;;;;;28.90;27.00;;;;;;;29.75;51.17;100786.16;5055027;28;20053;-83
2022/06/20 10:15:17;;;;;;;30.13;28.15;;;;;;;29.41;54.35;100779.75;5055273;28;20056;-83
2022/06/20 10:17:53;;;;;;;32.22;30.13;;;;;;;28.49;64.91;100776.75;5055082;28;20098;-83
2022/06/20 10:20:34;;;;;;;30.42;28.40;;;;;;;28.92;51.39;100782.06;5047197;28;20051;-83
2022/06/20 10:23:17;;;;;;;34.70;32.83;;;;;;;28.75;56.34;100782.94;5055304;28;20428;-83
2022/06/20 10:26:05;;;;;;;34.67;32.67;;;;;;;28.13;56.07;100766.19;5049253;28;20053;-83
2022/06/20 10:28:43;;;;;;;36.25;33.92;;;;;;;28.42;59.00;100766.34;5054634;28;20123;-84
2022/06/20 10:31:29;;;;;;;34.58;32.40;;;;;;;29.11;57.63;100772.69;5054113;28;20366;-82
2022/06/20 10:34:06;;;;;;;30.77;28.45;;;;;;;29.14;44.14;100759.16;5049202;28;20048;-85
2022/06/20 10:36:47;;;;;;;29.42;27.52;;;;;;;27.87;44.99;100756.09;5052329;28;20049;-82
2022/06/20 10:39:25;;;;;;;29.50;27.50;;;;;;;29.12;42.35;100753.22;5051902;28;20099;-85
2022/06/20 10:42:05;;;;;;;31.48;29.17;;;;;;;29.25;51.62;100765.03;5048213;28;20465;-82
2022/06/20 10:44:47;;;;;;;32.85;30.75;;;;;;;28.28;53.78;100755.56;5038861;28;20040;-82
2022/06/20 10:47:22;;;;;;;31.83;29.63;;;;;;;28.67;41.76;100755.66;5053570;28;20049;-84
2022/06/20 10:50:11;;;;;;;30.85;28.85;;;;;;;28.95;46.21;100747.81;5054437;28;20057;-84
2022/06/20 10:52:57;;;;;;;31.52;29.45;;;;;;;30.01;43.07;100747.59;5054577;28;20110;-85
2022/06/20 10:55:39;;;;;;;45.00;42.42;;;;;;;29.38;50.44;100754.97;5040503;28;20053;-86
2022/06/20 10:58:16;;;;;;;46.30;43.55;;;;;;;29.27;50.76;100748.31;5052768;28;20053;-85
2022/06/20 11:00:53;;;;;;;56.80;53.80;;;;;;;29.03;56.99;100740.72;5054359;28;20048;-83
2022/06/20 11:03:41;;;;;;;57.13;54.03;;;;;;;29.98;57.48;100742.78;5049020;28;20110;-83
2022/06/20 11:06:17;;;;;;;59.85;56.65;;;;;;;29.67;66.52;100740.50;5053942;28;20044;-86
2022/06/20 11:08:52;;;;;;;57.85;54.60;;;;;;;30.18;57.17;100729.41;5053523;28;20053;-86
2022/06/20 11:11:30;;;;;;;61.45;58.10;;;;;;;28.81;58.39;100728.13;5052986;28;20045;-85
2022/06/20 11:14:21;;;;;;;65.13;62.00;;;;;;;28.79;66.66;100733.91;5048115;28;20055;-88
2022/06/20 11:17:17;;;;;;;62.13;58.92;;;;;;;30.48;71.60;100725.38;5046297;28;20439;-86
2022/06/20 11:20:01;;;;;;;57.22;53.85;;;;;;;31.02;47.99;100718.94;5040023;28;20056;-86
2022/06/20 11:22:38;;;;;;;55.58;52.42;;;;;;;29.69;59.22;100710.88;5042492;28;20049;-85
2022/06/20 11:25:28;;;;;;;33.92;32.03;;;;;;;28.93;60.42;100707.16;5047023;28;20495;-84
2022/06/20 11:28:36;;;;;;;30.52;28.52;;;;;;;29.72;55.09;100701.19;5046380;28;20073;-86
2022/06/20 11:31:21;;;;;;;32.38;30.38;;;;;;;30.60;49.76;100690.94;5042850;28;20147;-87
2022/06/20 11:34:27;;;;;;;33.17;31.27;;;;;;;29.89;48.15;100695.53;5053607;28;20041;-84
2022/06/20 11:37:20;;;;;;;33.75;31.65;;;;;;;28.80;64.64;100697.22;5054489;28;20473;-86
2022/06/20 11:40:06;;;;;;;38.13;35.80;;;;;;;29.26;61.22;100698.28;5053159;28;20071;-87
2022/06/20 11:42:53;;;;;;;32.20;30.00;;;;;;;30.87;51.85;100695.75;5043331;28;20095;-84
2022/06/20 11:45:38;;;;;;;34.58;32.55;;;;;;;30.49;48.88;100682.34;5053766;28;20063;-84
2022/06/20 11:48:23;;;;;;;33.17;30.98;;;;;;;31.84;52.92;100680.19;5042374;28;20119;-84
2022/06/20 11:51:00;;;;;;;32.92;30.83;;;;;;;31.81;55.90;100675.41;5050714;28;20063;-86
2022/06/20 11:53:41;;;;;;;32.50;30.27;;;;;;;32.31;44.43;100660.22;5053724;28;20457;-84
2022/06/20 11:56:21;;;;;;;34.55;32.45;;;;;;;31.98;49.52;100660.56;5053697;28;20055;-85
2022/06/20 11:59:19;;;;;;;31.17;29.08;;;;;;;31.69;49.51;100659.78;5050228;28;20045;-86
2022/06/20 12:01:58;;;;;;;29.67;27.83;;;;;;;31.88;43.14;100655.56;5037913;28;20048;-84